Time;durP1;ratioP1;P1;durP2;ratioP2;P2;SDS_P1;SDS_P2;PMS_P1;PMS_P2;Temp;Humidity;BMP_temperature;BMP_pressure;BME280_temperature;BME280_humidity;BME280_pressure;Samples;Min_cycle;Max_cycle;Signal;HPM_P1;HPM_P2
2022/04/25 00:01:02;;;;;;;12.32;7.78;;;;;;;;;;5018333;28;20133;-61
2022/04/25 00:03:28;;;;;;;12.55;7.82;;;;;;;;;;5021682;28;20029;-62
2022/04/25 00:05:54;;;;;;;8.40;7.30;;;;;;;;;;5019602;28;20032;-60
2022/04/25 00:08:21;;;;;;;9.48;7.78;;;;;;;;;;5026528;28;20052;-61
2022/04/25 00:10:47;;;;;;;9.23;7.75;;;;;;;;;;5022935;28;20092;-61
2022/04/25 00:13:14;;;;;;;10.05;8.02;;;;;;;;;;5018530;28;20468;-60
2022/04/25 00:15:40;;;;;;;11.68;7.78;;;;;;;;;;5021636;28;20023;-58
2022/04/25 00:18:06;;;;;;;9.63;7.78;;;;;;;;;;5021656;28;20281;-61
2022/04/25 00:20:32;;;;;;;10.70;8.32;;;;;;;;;;5019547;28;20608;-61
2022/04/25 00:23:00;;;;;;;11.45;8.38;;;;;;;;;;5021674;28;20370;-61
2022/04/25 00:25:28;;;;;;;11.10;8.45;;;;;;;;;;5019210;28;20544;-60
2022/04/25 00:27:53;;;;;;;11.15;8.35;;;;;;;;;;5019948;28;20064;-61
2022/04/25 00:30:20;;;;;;;10.15;8.27;;;;;;;;;;5024828;28;20103;-61
2022/04/25 00:32:46;;;;;;;10.20;8.07;;;;;;;;;;5022887;28;20028;-61
2022/04/25 00:35:12;;;;;;;10.98;8.63;;;;;;;;;;5023910;28;20072;-60
2022/04/25 00:37:38;;;;;;;11.25;8.90;;;;;;;;;;5021386;28;20037;-61
2022/04/25 00:40:04;;;;;;;9.90;7.97;;;;;;;;;;5020318;28;20560;-61
2022/04/25 00:42:30;;;;;;;12.40;7.70;;;;;;;;;;5026769;28;20044;-61
2022/04/25 00:44:59;;;;;;;9.55;7.22;;;;;;;;;;5031263;28;20104;-61
2022/04/25 00:47:25;;;;;;;9.90;6.93;;;;;;;;;;5030600;28;20037;-60
2022/04/25 00:49:51;;;;;;;14.00;6.90;;;;;;;;;;5030658;28;20155;-61
2022/04/25 00:52:17;;;;;;;8.10;6.47;;;;;;;;;;5028701;28;20021;-61
2022/04/25 00:54:43;;;;;;;9.25;6.78;;;;;;;;;;5028526;28;20037;-61
2022/04/25 00:57:10;;;;;;;6.20;5.00;;;;;;;;;;5028674;28;20030;-61
2022/04/25 00:59:35;;;;;;;6.22;4.95;;;;;;;;;;5025556;28;20458;-61
2022/04/25 01:02:01;;;;;;;8.00;5.05;;;;;;;;;;5023797;28;20104;-60
2022/04/25 01:04:27;;;;;;;10.20;5.18;;;;;;;;;;5027326;28;20684;-61
2022/04/25 01:06:53;;;;;;;6.90;5.40;;;;;;;;;;5025427;28;20021;-61
2022/04/25 01:09:19;;;;;;;7.55;5.18;;;;;;;;;;5027722;28;20383;-60
2022/04/25 01:11:46;;;;;;;6.68;5.72;;;;;;;;;;5025599;28;20072;-61
2022/04/25 01:14:18;;;;;;;6.85;5.13;;;;;;;;;;5026438;28;20473;-61
2022/04/25 01:16:44;;;;;;;7.10;5.53;;;;;;;;;;5029331;28;20052;-61
2022/04/25 01:19:10;;;;;;;8.10;5.55;;;;;;;;;;5029017;28;20119;-62
2022/04/25 01:21:42;;;;;;;7.88;5.93;;;;;;;;;;5028082;28;20460;-62
2022/04/25 01:29:38;;;;;;;7.50;6.60;;;;;;;;;;5026096;28;20056;-61
2022/04/25 01:32:05;;;;;;;8.07;6.78;;;;;;;;;;5022378;28;20033;-62
2022/04/25 01:34:33;;;;;;;9.52;6.60;;;;;;;;;;5027760;28;20036;-61
2022/04/25 01:37:01;;;;;;;6.60;5.93;;;;;;;;;;5030479;28;20044;-61
2022/04/25 01:39:27;;;;;;;6.88;5.97;;;;;;;;;;5030485;28;20484;-61
2022/04/25 01:41:54;;;;;;;7.68;6.43;;;;;;;;;;5030298;28;20025;-60
2022/04/25 01:44:22;;;;;;;6.97;6.28;;;;;;;;;;5032393;28;20025;-61
2022/04/25 01:46:48;;;;;;;8.35;6.35;;;;;;;;;;5026846;28;20083;-61
2022/04/25 01:49:14;;;;;;;8.35;6.35;;;;;;;;;;5035809;28;20642;-61
2022/04/25 01:51:40;;;;;;;7.10;6.40;;;;;;;;;;5038074;28;20397;-61
2022/04/25 01:54:06;;;;;;;7.05;6.35;;;;;;;;;;5022793;28;20489;-61
2022/04/25 01:56:32;;;;;;;7.05;6.18;;;;;;;;;;5027481;28;20030;-61
2022/04/25 01:58:58;;;;;;;7.32;6.10;;;;;;;;;;5027343;28;20415;-61
2022/04/25 02:01:24;;;;;;;8.00;6.75;;;;;;;;;;5026444;28;20064;-61
2022/04/25 02:03:50;;;;;;;9.00;7.00;;;;;;;;;;5022734;28;20440;-61
2022/04/25 02:06:16;;;;;;;7.85;7.05;;;;;;;;;;5022963;28;20022;-61
2022/04/25 02:08:43;;;;;;;8.45;6.97;;;;;;;;;;5020784;28;20123;-59
2022/04/25 02:11:22;;;;;;;8.30;7.15;;;;;;;;;;5027808;28;20017;-61
2022/04/25 02:13:51;;;;;;;9.73;7.43;;;;;;;;;;5023815;28;20116;-60
2022/04/25 02:16:18;;;;;;;8.48;7.13;;;;;;;;;;5026444;28;20447;-62
2022/04/25 02:18:44;;;;;;;9.05;8.15;;;;;;;;;;5022037;28;20108;-61
2022/04/25 02:21:10;;;;;;;9.98;8.38;;;;;;;;;;5028327;28;20477;-61
2022/04/25 02:23:37;;;;;;;9.52;7.78;;;;;;;;;;5026012;28;20021;-61
2022/04/25 02:26:02;;;;;;;9.68;8.13;;;;;;;;;;5023732;28;20644;-61
2022/04/25 02:28:28;;;;;;;9.85;8.55;;;;;;;;;;5025292;28;20131;-61
2022/04/25 02:30:54;;;;;;;9.13;7.50;;;;;;;;;;5023107;28;20728;-61
2022/04/25 02:33:20;;;;;;;9.32;7.88;;;;;;;;;;5025413;28;20553;-61
2022/04/25 02:35:47;;;;;;;10.60;7.97;;;;;;;;;;5025753;28;20044;-61
2022/04/25 02:38:13;;;;;;;10.48;8.13;;;;;;;;;;5025505;28;20049;-61
2022/04/25 02:40:39;;;;;;;10.98;8.35;;;;;;;;;;5034503;28;20053;-59
2022/04/25 02:43:05;;;;;;;9.82;8.40;;;;;;;;;;5020694;28;20059;-61
2022/04/25 02:45:31;;;;;;;9.88;7.95;;;;;;;;;;5028016;28;20428;-60
2022/04/25 02:47:57;;;;;;;9.60;7.70;;;;;;;;;;5019564;28;20457;-61
2022/04/25 02:50:23;;;;;;;9.40;7.70;;;;;;;;;;5027367;28;20021;-60
2022/04/25 02:52:53;;;;;;;11.35;8.50;;;;;;;;;;5026841;28;20029;-61
2022/04/25 02:55:19;;;;;;;9.73;7.95;;;;;;;;;;5023694;28;20506;-62
2022/04/25 02:57:45;;;;;;;11.07;8.07;;;;;;;;;;5024719;28;20036;-61
2022/04/25 03:00:11;;;;;;;10.60;8.05;;;;;;;;;;5023759;28;20052;-61
2022/04/25 03:02:37;;;;;;;10.32;7.97;;;;;;;;;;5024896;28;20156;-61
2022/04/25 03:05:04;;;;;;;8.85;7.63;;;;;;;;;;5025879;28;20033;-61
2022/04/25 03:07:30;;;;;;;9.05;7.72;;;;;;;;;;5023401;28;20030;-61
2022/04/25 03:09:56;;;;;;;9.68;8.23;;;;;;;;;;5023445;28;20030;-61
2022/04/25 03:12:22;;;;;;;8.85;7.90;;;;;;;;;;5024841;28;20477;-60
2022/04/25 03:14:48;;;;;;;9.27;8.23;;;;;;;;;;5013366;28;20044;-60
2022/04/25 03:17:14;;;;;;;15.98;9.13;;;;;;;;;;5017196;28;20752;-61
2022/04/25 03:19:40;;;;;;;11.30;8.55;;;;;;;;;;5020294;28;20022;-61
2022/04/25 03:22:06;;;;;;;9.60;8.00;;;;;;;;;;5024323;28;20029;-61
2022/04/25 03:24:32;;;;;;;9.15;7.85;;;;;;;;;;5024494;28;20052;-61
2022/04/25 03:26:59;;;;;;;9.98;8.18;;;;;;;;;;5019407;28;20064;-60
2022/04/25 03:29:24;;;;;;;9.77;8.30;;;;;;;;;;5021045;28;20037;-61
2022/04/25 03:31:52;;;;;;;9.40;8.35;;;;;;;;;;5017647;28;20547;-61
2022/04/25 03:34:18;;;;;;;9.48;8.35;;;;;;;;;;5020489;28;20029;-60
2022/04/25 03:36:44;;;;;;;10.52;7.50;;;;;;;;;;5020439;28;20491;-61
2022/04/25 03:39:10;;;;;;;9.40;8.13;;;;;;;;;;5025092;28;20058;-61
2022/04/25 03:41:36;;;;;;;11.05;8.40;;;;;;;;;;5023913;28;20068;-61
2022/04/25 03:44:03;;;;;;;9.43;7.75;;;;;;;;;;5022708;28;20053;-60
2022/04/25 03:46:29;;;;;;;8.90;7.75;;;;;;;;;;5020500;28;20055;-61
2022/04/25 03:48:55;;;;;;;8.25;7.43;;;;;;;;;;5025611;28;20057;-61
2022/04/25 03:51:24;;;;;;;8.77;7.53;;;;;;;;;;5025649;28;20029;-61
2022/04/25 03:53:50;;;;;;;10.80;7.95;;;;;;;;;;5022574;28;20037;-61
2022/04/25 03:59:00;;;;;;;10.30;7.22;;;;;;;;;;5021963;28;20519;-61
2022/04/25 04:01:26;;;;;;;9.68;7.47;;;;;;;;;;5017915;28;20041;-61
2022/04/25 04:03:53;;;;;;;8.32;7.35;;;;;;;;;;5025403;28;20075;-61
2022/04/25 04:06:19;;;;;;;8.93;7.75;;;;;;;;;;5023248;28;20437;-61
2022/04/25 04:08:45;;;;;;;8.75;7.50;;;;;;;;;;5018551;28;20348;-60
2022/04/25 04:11:11;;;;;;;10.35;7.85;;;;;;;;;;5024418;28;20405;-61
2022/04/25 04:13:37;;;;;;;11.00;8.18;;;;;;;;;;5018923;28;20029;-61
2022/04/25 04:16:04;;;;;;;9.50;7.72;;;;;;;;;;5021160;28;20104;-61
2022/04/25 04:18:29;;;;;;;9.30;7.63;;;;;;;;;;5018347;28;20032;-60
2022/04/25 04:20:55;;;;;;;9.90;8.02;;;;;;;;;;5021166;28;20021;-60
2022/04/25 04:23:21;;;;;;;10.15;7.70;;;;;;;;;;5013802;28;20037;-61
2022/04/25 04:25:47;;;;;;;9.82;7.97;;;;;;;;;;5022127;28;20088;-58
2022/04/25 04:28:13;;;;;;;9.57;7.95;;;;;;;;;;5020041;28;20052;-60
2022/04/25 04:30:39;;;;;;;9.80;8.20;;;;;;;;;;5022225;28;20029;-60
2022/04/25 04:33:07;;;;;;;9.30;7.80;;;;;;;;;;5017848;28;20022;-61
2022/04/25 04:38:18;;;;;;;9.95;7.75;;;;;;;;;;5019265;28;20072;-60
2022/04/25 04:40:44;;;;;;;12.32;8.48;;;;;;;;;;5020532;28;20064;-61
2022/04/25 04:43:09;;;;;;;10.52;8.18;;;;;;;;;;5017738;28;20018;-61
2022/04/25 04:45:35;;;;;;;11.23;9.05;;;;;;;;;;5016828;28;20557;-61
2022/04/25 04:48:01;;;;;;;10.25;8.10;;;;;;;;;;5013603;28;20448;-61
2022/04/25 04:50:28;;;;;;;10.70;8.75;;;;;;;;;;5022665;28;20146;-61
2022/04/25 04:52:58;;;;;;;12.40;9.27;;;;;;;;;;5023993;28;20017;-60
2022/04/25 04:55:24;;;;;;;11.65;9.23;;;;;;;;;;5018191;28;20128;-60
2022/04/25 04:57:50;;;;;;;13.80;9.90;;;;;;;;;;5020371;28;20441;-60
2022/04/25 05:00:17;;;;;;;12.38;9.55;;;;;;;;;;5025705;28;20024;-60
2022/04/25 05:02:44;;;;;;;14.32;9.90;;;;;;;;;;5018402;28;20041;-61
2022/04/25 05:05:10;;;;;;;17.98;10.93;;;;;;;;;;5019026;28;20025;-60
2022/04/25 05:07:36;;;;;;;12.00;9.73;;;;;;;;;;5022744;28;20672;-61
2022/04/25 05:10:09;;;;;;;12.52;11.07;;;;;;;;;;5019719;28;21965;-61
2022/04/25 05:12:44;;;;;;;13.82;11.45;;;;;;;;;;5019868;28;20112;-61
2022/04/25 05:15:11;;;;;;;14.80;11.40;;;;;;;;;;5011317;28;20034;-61
2022/04/25 05:17:37;;;;;;;13.05;11.05;;;;;;;;;;5019663;28;20528;-60
2022/04/25 05:20:03;;;;;;;13.65;11.05;;;;;;;;;;5019274;28;20201;-61
2022/04/25 05:22:29;;;;;;;18.17;11.93;;;;;;;;;;5021204;28;20269;-61
2022/04/25 05:24:56;;;;;;;13.50;11.82;;;;;;;;;;5023975;28;20527;-61
2022/04/25 05:27:22;;;;;;;15.20;11.65;;;;;;;;;;5021622;28;20295;-61
2022/04/25 05:29:48;;;;;;;15.95;12.43;;;;;;;;;;5023337;28;20520;-60
2022/04/25 05:32:14;;;;;;;14.52;11.52;;;;;;;;;;5022242;28;20036;-62
2022/04/25 05:34:40;;;;;;;14.85;12.13;;;;;;;;;;5019162;28;20439;-61
2022/04/25 05:37:06;;;;;;;15.15;12.32;;;;;;;;;;5026910;28;20017;-61
2022/04/25 05:39:32;;;;;;;14.80;12.35;;;;;;;;;;5025174;28;20389;-62
2022/04/25 05:41:59;;;;;;;15.30;12.85;;;;;;;;;;5019173;28;20637;-61
2022/04/25 05:44:25;;;;;;;16.77;11.93;;;;;;;;;;5018048;28;20025;-61
2022/04/25 05:46:51;;;;;;;16.08;12.05;;;;;;;;;;5023716;28;20025;-61
2022/04/25 05:52:05;;;;;;;14.38;11.85;;;;;;;;;;5020144;28;20091;-60
2022/04/25 05:54:32;;;;;;;14.77;11.90;;;;;;;;;;5023137;28;20136;-60
2022/04/25 05:56:58;;;;;;;14.73;12.05;;;;;;;;;;5020600;28;20029;-60
2022/04/25 05:59:24;;;;;;;14.10;11.63;;;;;;;;;;5023727;28;20030;-60
2022/04/25 06:01:50;;;;;;;12.95;11.23;;;;;;;;;;5021310;28;20389;-59
2022/04/25 06:04:16;;;;;;;16.45;12.65;;;;;;;;;;5026125;28;20072;-61
2022/04/25 06:06:42;;;;;;;18.35;11.85;;;;;;;;;;5020498;28;20212;-61
2022/04/25 06:09:08;;;;;;;15.60;12.60;;;;;;;;;;5024505;28;20065;-61
2022/04/25 06:11:34;;;;;;;16.10;12.88;;;;;;;;;;5020825;28;20104;-60
2022/04/25 06:14:02;;;;;;;16.55;13.32;;;;;;;;;;5021234;28;20021;-61
2022/04/25 06:16:28;;;;;;;15.57;12.75;;;;;;;;;;5021754;28;20036;-61
2022/04/25 06:18:54;;;;;;;14.85;12.68;;;;;;;;;;5022007;28;20033;-58
2022/04/25 06:21:20;;;;;;;14.57;12.73;;;;;;;;;;5020867;28;20021;-62
2022/04/25 06:23:46;;;;;;;18.45;13.60;;;;;;;;;;5020980;28;20442;-61
2022/04/25 06:26:12;;;;;;;15.02;12.73;;;;;;;;;;5017658;28;20109;-62
2022/04/25 06:28:38;;;;;;;15.30;12.70;;;;;;;;;;5004644;28;20528;-59
2022/04/25 06:31:04;;;;;;;16.75;13.63;;;;;;;;;;5024658;28;20021;-60
2022/04/25 06:33:30;;;;;;;17.52;13.13;;;;;;;;;;5023813;28;20032;-59
2022/04/25 06:35:56;;;;;;;19.38;14.18;;;;;;;;;;5023232;28;20037;-58
2022/04/25 06:38:22;;;;;;;19.23;14.80;;;;;;;;;;5023784;28;20037;-60
2022/04/25 06:40:48;;;;;;;19.65;15.05;;;;;;;;;;5021119;28;20022;-59
2022/04/25 06:43:14;;;;;;;17.02;14.85;;;;;;;;;;5021345;28;20443;-60
2022/04/25 06:45:40;;;;;;;20.55;15.48;;;;;;;;;;5019563;28;20477;-60
2022/04/25 06:48:06;;;;;;;17.98;14.63;;;;;;;;;;5020305;28;20038;-60
2022/04/25 06:50:32;;;;;;;22.38;16.02;;;;;;;;;;5025556;28;20041;-59
2022/04/25 06:52:58;;;;;;;22.05;15.90;;;;;;;;;;5026532;28;20621;-60
2022/04/25 06:55:25;;;;;;;19.30;16.13;;;;;;;;;;5024560;28;20430;-60
2022/04/25 06:57:52;;;;;;;20.95;15.95;;;;;;;;;;5017204;28;20431;-60
2022/04/25 07:00:19;;;;;;;20.45;16.73;;;;;;;;;;5026649;28;20385;-61
2022/04/25 07:02:46;;;;;;;24.70;19.35;;;;;;;;;;5024618;28;20025;-59
2022/04/25 07:05:12;;;;;;;27.67;18.52;;;;;;;;;;5028320;28;20025;-61
2022/04/25 07:07:38;;;;;;;25.63;18.95;;;;;;;;;;5020322;28;20088;-60
2022/04/25 07:10:05;;;;;;;22.30;18.33;;;;;;;;;;5018225;28;20024;-61
2022/04/25 07:12:31;;;;;;;26.33;19.38;;;;;;;;;;5022314;28;20096;-60
2022/04/25 07:14:57;;;;;;;24.33;20.10;;;;;;;;;;5018544;28;20029;-60
2022/04/25 07:17:23;;;;;;;23.80;20.05;;;;;;;;;;5024090;28;20040;-61
2022/04/25 07:19:49;;;;;;;25.90;20.52;;;;;;;;;;5018553;28;20026;-61
2022/04/25 07:30:30;;;;;;;27.10;21.63;;;;;;;;;;5024515;28;20036;-61
2022/04/25 07:32:56;;;;;;;25.65;21.15;;;;;;;;;;5024483;28;20507;-61
2022/04/25 07:35:23;;;;;;;26.35;21.13;;;;;;;;;;5018993;28;20026;-60
2022/04/25 07:37:49;;;;;;;27.05;21.63;;;;;;;;;;5024825;28;20095;-61
2022/04/25 07:40:15;;;;;;;24.75;21.85;;;;;;;;;;5025036;28;20105;-59
2022/04/25 07:42:41;;;;;;;29.45;22.73;;;;;;;;;;5026097;28;20032;-60
2022/04/25 07:45:08;;;;;;;26.77;22.25;;;;;;;;;;5023416;28;20033;-60
2022/04/25 07:47:37;;;;;;;26.58;22.88;;;;;;;;;;5016499;28;20183;-60
2022/04/25 07:50:03;;;;;;;27.83;22.52;;;;;;;;;;5019206;28;20119;-60
2022/04/25 07:52:29;;;;;;;31.38;23.77;;;;;;;;;;5018668;28;20356;-60
2022/04/25 07:54:56;;;;;;;29.10;23.17;;;;;;;;;;5023703;28;20021;-61
2022/04/25 07:57:22;;;;;;;27.98;22.75;;;;;;;;;;5018428;28;20026;-61
2022/04/25 07:59:48;;;;;;;29.30;23.05;;;;;;;;;;5022520;28;20598;-61
2022/04/25 08:02:17;;;;;;;30.08;23.00;;;;;;;;;;5024176;28;20271;-59
2022/04/25 08:04:44;;;;;;;26.08;20.98;;;;;;;;;;5024908;28;20028;-61
2022/04/25 08:07:11;;;;;;;26.67;21.92;;;;;;;;;;5020945;28;20535;-61
2022/04/25 08:09:37;;;;;;;29.30;23.15;;;;;;;;;;5031321;28;20025;-61
2022/04/25 08:20:17;;;;;;;25.08;19.70;;;;;;;;;;5024633;28;20049;-62
2022/04/25 08:22:43;;;;;;;25.30;19.85;;;;;;;;;;5020352;28;20040;-61
2022/04/25 08:25:11;;;;;;;24.75;20.35;;;;;;;;;;5021860;28;20038;-61
2022/04/25 08:27:37;;;;;;;23.75;20.10;;;;;;;;;;5022178;28;20429;-61
2022/04/25 08:30:03;;;;;;;26.17;21.27;;;;;;;;;;5019686;28;20026;-62
2022/04/25 08:32:32;;;;;;;27.58;19.67;;;;;;;;;;5024224;28;20132;-61
2022/04/25 08:34:58;;;;;;;23.77;20.42;;;;;;;;;;5023057;28;20057;-62
2022/04/25 08:37:24;;;;;;;26.27;19.80;;;;;;;;;;5021149;28;20061;-62
2022/04/25 08:39:50;;;;;;;25.20;20.77;;;;;;;;;;5020042;28;20422;-61
2022/04/25 08:42:16;;;;;;;26.52;22.25;;;;;;;;;;5021952;28;20422;-61
2022/04/25 08:44:43;;;;;;;25.10;20.95;;;;;;;;;;5020246;28;20029;-62
2022/04/25 08:47:11;;;;;;;26.35;21.65;;;;;;;;;;5025448;28;20037;-62
2022/04/25 08:49:38;;;;;;;26.13;21.50;;;;;;;;;;5023624;28;20029;-62
2022/04/25 08:52:04;;;;;;;25.63;21.88;;;;;;;;;;5017457;28;20443;-62
2022/04/25 08:54:31;;;;;;;30.40;22.55;;;;;;;;;;5023791;28;20120;-60
2022/04/25 08:56:57;;;;;;;28.30;22.90;;;;;;;;;;5021611;28;20041;-61
2022/04/25 08:59:24;;;;;;;31.23;22.77;;;;;;;;;;5023429;28;20032;-61
2022/04/25 09:01:50;;;;;;;29.33;23.75;;;;;;;;;;5021886;28;20476;-61
2022/04/25 09:04:16;;;;;;;28.05;23.67;;;;;;;;;;5026022;28;20063;-61
2022/04/25 09:06:43;;;;;;;27.83;23.42;;;;;;;;;;5029100;28;20468;-62
2022/04/25 09:09:08;;;;;;;27.52;23.27;;;;;;;;;;5022370;28;20167;-62
2022/04/25 09:14:19;;;;;;;29.52;22.90;;;;;;;;;;5025309;28;20132;-61
2022/04/25 09:16:45;;;;;;;30.73;24.23;;;;;;;;;;5025799;28;20840;-61
2022/04/25 09:19:11;;;;;;;28.75;23.25;;;;;;;;;;5025462;28;20029;-61
2022/04/25 09:21:44;;;;;;;29.42;23.83;;;;;;;;;;5027458;28;20028;-61
2022/04/25 09:24:20;;;;;;;25.65;22.27;;;;;;;;;;5020782;28;20037;-61
2022/04/25 09:26:46;;;;;;;27.88;24.35;;;;;;;;;;5025832;28;20028;-61
2022/04/25 09:29:12;;;;;;;29.35;24.65;;;;;;;;;;5023922;28;20092;-62
2022/04/25 09:31:48;;;;;;;28.13;22.63;;;;;;;;;;5021703;28;20480;-61
2022/04/25 09:34:15;;;;;;;31.38;23.77;;;;;;;;;;5027263;28;20060;-61
2022/04/25 09:36:47;;;;;;;30.95;24.70;;;;;;;;;;5024964;28;20080;-61
2022/04/25 09:39:30;;;;;;;28.45;23.77;;;;;;;;;;5026738;28;20057;-61
2022/04/25 09:41:57;;;;;;;31.75;24.05;;;;;;;;;;5021459;28;20030;-61
2022/04/25 09:44:23;;;;;;;31.27;25.33;;;;;;;;;;5020765;28;20519;-61
2022/04/25 09:46:49;;;;;;;31.30;25.83;;;;;;;;;;5025383;28;20099;-62
2022/04/25 09:49:22;;;;;;;36.85;27.23;;;;;;;;;;5027730;28;20073;-61
2022/04/25 09:52:14;;;;;;;33.13;26.70;;;;;;;;;;5025411;28;20032;-61
2022/04/25 09:54:40;;;;;;;37.10;28.45;;;;;;;;;;5024301;28;20134;-62
2022/04/25 09:57:06;;;;;;;36.80;27.27;;;;;;;;;;5025813;28;20080;-62
2022/04/25 09:59:43;;;;;;;35.55;28.60;;;;;;;;;;5019012;28;20029;-62
2022/04/25 10:02:09;;;;;;;37.30;29.85;;;;;;;;;;5019315;28;20036;-61
2022/04/25 10:04:38;;;;;;;37.47;29.85;;;;;;;;;;5023795;28;20029;-61
2022/04/25 10:07:05;;;;;;;36.50;28.95;;;;;;;;;;5022917;28;20025;-61
2022/04/25 10:09:33;;;;;;;37.90;30.38;;;;;;;;;;5026380;28;20392;-60
2022/04/25 10:12:00;;;;;;;36.63;30.33;;;;;;;;;;5022908;28;20037;-61
2022/04/25 10:14:26;;;;;;;39.88;32.78;;;;;;;;;;5019391;28;20770;-61
2022/04/25 10:16:55;;;;;;;39.85;31.67;;;;;;;;;;5027892;28;20030;-61
2022/04/25 10:19:21;;;;;;;36.55;30.55;;;;;;;;;;5021937;28;20033;-59
2022/04/25 10:21:48;;;;;;;38.92;30.38;;;;;;;;;;5019016;28;20382;-61
2022/04/25 10:24:19;;;;;;;37.67;31.08;;;;;;;;;;5023509;28;20037;-61
2022/04/25 10:26:47;;;;;;;36.78;30.75;;;;;;;;;;5020418;28;20443;-61
2022/04/25 10:29:15;;;;;;;42.03;32.08;;;;;;;;;;5019188;28;20037;-61
2022/04/25 10:31:42;;;;;;;39.03;31.13;;;;;;;;;;5024566;28;20560;-61
2022/04/25 10:34:09;;;;;;;37.80;29.35;;;;;;;;;;5022834;28;20033;-61
2022/04/25 10:36:38;;;;;;;35.95;28.15;;;;;;;;;;5022013;28;20760;-61
2022/04/25 10:39:15;;;;;;;34.65;28.40;;;;;;;;;;5022590;28;20072;-61
2022/04/25 10:44:43;;;;;;;38.85;31.52;;;;;;;;;;5024906;28;20064;-61
2022/04/25 10:47:12;;;;;;;36.65;29.85;;;;;;;;;;5021750;28;20025;-60
2022/04/25 10:49:45;;;;;;;39.88;30.90;;;;;;;;;;5022811;28;20508;-61
2022/04/25 10:52:30;;;;;;;40.28;32.95;;;;;;;;;;5022186;28;20152;-61
2022/04/25 10:55:14;;;;;;;41.83;32.15;;;;;;;;;;5018364;28;20028;-61
2022/04/25 10:57:58;;;;;;;37.45;31.85;;;;;;;;;;5021165;28;20037;-61
2022/04/25 11:00:36;;;;;;;38.40;31.33;;;;;;;;;;5022429;28;20024;-60
2022/04/25 11:03:04;;;;;;;41.45;32.13;;;;;;;;;;5019717;28;20492;-61
2022/04/25 11:05:30;;;;;;;40.53;32.28;;;;;;;;;;5020818;28;20751;-61
2022/04/25 11:08:15;;;;;;;41.92;31.85;;;;;;;;;;5023954;28;20365;-61
2022/04/25 11:10:43;;;;;;;41.22;32.83;;;;;;;;;;5022588;28;20449;-61
2022/04/25 11:13:10;;;;;;;44.15;32.70;;;;;;;;;;5017773;28;20486;-61
2022/04/25 11:15:39;;;;;;;42.45;31.85;;;;;;;;;;5021658;28;20040;-60
2022/04/25 11:18:34;;;;;;;34.65;27.65;;;;;;;;;;5023739;28;20033;-61
2022/04/25 11:21:13;;;;;;;35.50;29.10;;;;;;;;;;5021520;28;20524;-61
2022/04/25 11:23:45;;;;;;;33.22;28.13;;;;;;;;;;5017577;28;20030;-61
2022/04/25 11:26:11;;;;;;;38.20;29.38;;;;;;;;;;5018497;28;20034;-61
2022/04/25 11:29:08;;;;;;;35.15;28.77;;;;;;;;;;5020230;28;20155;-61
2022/04/25 11:31:41;;;;;;;35.35;28.17;;;;;;;;;;5017631;28;20108;-60
2022/04/25 11:34:11;;;;;;;35.90;29.45;;;;;;;;;;5021434;28;20152;-60
2022/04/25 11:36:38;;;;;;;34.80;29.15;;;;;;;;;;5017338;28;20060;-60
2022/04/25 11:41:49;;;;;;;36.90;29.63;;;;;;;;;;5022536;28;20043;-61
2022/04/25 11:44:15;;;;;;;37.47;29.77;;;;;;;;;;5023296;28;20048;-60
2022/04/25 11:46:41;;;;;;;37.42;31.52;;;;;;;;;;5024762;28;20030;-60
2022/04/25 11:49:07;;;;;;;40.00;31.20;;;;;;;;;;5018380;28;20038;-60
2022/04/25 11:51:40;;;;;;;41.45;31.65;;;;;;;;;;5016071;28;20029;-61
2022/04/25 11:54:06;;;;;;;44.60;33.20;;;;;;;;;;5024222;28;20050;-61
2022/04/25 11:56:33;;;;;;;45.25;34.63;;;;;;;;;;5020614;28;20033;-60
2022/04/25 11:59:00;;;;;;;47.80;36.38;;;;;;;;;;5020653;28;20025;-61
2022/04/25 12:01:39;;;;;;;43.97;35.65;;;;;;;;;;5017759;28;20065;-60
2022/04/25 12:04:21;;;;;;;45.80;36.08;;;;;;;;;;5021487;28;20025;-61
2022/04/25 12:06:51;;;;;;;38.58;30.02;;;;;;;;;;5017084;28;20025;-61
2022/04/25 12:17:38;;;;;;;39.33;31.35;;;;;;;;;;5027776;28;20132;-60
2022/04/25 12:20:04;;;;;;;37.22;28.70;;;;;;;;;;5023228;28;20033;-61
2022/04/25 12:22:30;;;;;;;37.40;30.55;;;;;;;;;;5016045;28;20028;-61
2022/04/25 12:25:17;;;;;;;40.05;30.45;;;;;;;;;;5023306;28;20108;-61
2022/04/25 12:28:01;;;;;;;32.70;27.40;;;;;;;;;;5026252;28;20422;-62
2022/04/25 12:30:28;;;;;;;34.70;27.00;;;;;;;;;;5030339;28;20040;-61
2022/04/25 12:33:07;;;;;;;34.28;27.08;;;;;;;;;;5028992;28;20497;-61
2022/04/25 12:35:33;;;;;;;30.95;26.75;;;;;;;;;;5032443;28;20119;-61
2022/04/25 12:37:59;;;;;;;33.67;27.20;;;;;;;;;;5026348;28;20060;-62
2022/04/25 12:40:25;;;;;;;32.38;27.70;;;;;;;;;;5032910;28;20099;-61
2022/04/25 12:42:54;;;;;;;32.10;26.92;;;;;;;;;;5020318;28;20420;-61
2022/04/25 12:45:20;;;;;;;34.47;27.88;;;;;;;;;;5028312;28;20032;-62
2022/04/25 12:47:53;;;;;;;30.35;25.92;;;;;;;;;;5033004;28;20583;-61
2022/04/25 12:50:39;;;;;;;30.88;25.77;;;;;;;;;;5027876;28;20032;-61
2022/04/25 12:53:06;;;;;;;29.23;25.20;;;;;;;;;;5023609;28;20067;-62
2022/04/25 12:55:42;;;;;;;30.77;25.80;;;;;;;;;;5029975;28;20017;-61
2022/04/25 12:58:08;;;;;;;34.28;27.55;;;;;;;;;;5021291;28;20385;-61
2022/04/25 13:00:47;;;;;;;32.33;25.45;;;;;;;;;;5027083;28;20021;-62
2022/04/25 13:03:13;;;;;;;28.10;22.50;;;;;;;;;;5025566;28;20033;-62
2022/04/25 13:05:39;;;;;;;28.50;22.60;;;;;;;;;;5023316;28;20025;-62
2022/04/25 13:08:06;;;;;;;28.58;23.52;;;;;;;;;;5024879;28;20481;-62
2022/04/25 13:10:32;;;;;;;27.30;23.48;;;;;;;;;;5024936;28;20029;-62
2022/04/25 13:12:58;;;;;;;27.70;23.02;;;;;;;;;;5021102;28;20497;-61
2022/04/25 13:15:30;;;;;;;27.75;23.08;;;;;;;;;;5019842;28;20065;-61
2022/04/25 13:17:57;;;;;;;31.20;24.17;;;;;;;;;;5021120;28;20595;-62
2022/04/25 13:20:24;;;;;;;29.60;24.00;;;;;;;;;;5021478;28;20112;-62
2022/04/25 13:22:51;;;;;;;28.77;23.77;;;;;;;;;;5019083;28;20519;-62
2022/04/25 13:25:20;;;;;;;29.63;24.05;;;;;;;;;;5018415;28;20414;-62
2022/04/25 13:27:45;;;;;;;28.08;23.60;;;;;;;;;;5023958;28;20401;-61
2022/04/25 13:30:13;;;;;;;27.83;24.25;;;;;;;;;;5018705;28;20034;-62
2022/04/25 13:32:40;;;;;;;30.08;25.02;;;;;;;;;;5021013;28;20532;-62
2022/04/25 13:35:08;;;;;;;30.67;25.25;;;;;;;;;;5026568;28;20044;-62
2022/04/25 13:37:34;;;;;;;32.30;26.17;;;;;;;;;;5020281;28;20025;-62
2022/04/25 13:40:00;;;;;;;26.80;23.88;;;;;;;;;;5021551;28;20021;-62
2022/04/25 13:42:27;;;;;;;28.92;24.35;;;;;;;;;;5015473;28;20037;-62
2022/04/25 13:44:53;;;;;;;29.05;23.77;;;;;;;;;;5029693;28;20373;-62
2022/04/25 13:47:19;;;;;;;29.65;25.00;;;;;;;;;;5025671;28;20294;-62
2022/04/25 13:49:45;;;;;;;27.27;24.02;;;;;;;;;;5032466;28;20018;-62
2022/04/25 13:52:11;;;;;;;27.00;24.08;;;;;;;;;;5034513;28;20044;-61
2022/04/25 13:54:40;;;;;;;28.50;25.15;;;;;;;;;;5028475;28;20029;-62
2022/04/25 13:57:06;;;;;;;27.23;23.60;;;;;;;;;;5032894;28;20025;-61
2022/04/25 13:59:32;;;;;;;28.02;23.33;;;;;;;;;;5037253;28;20425;-62
2022/04/25 14:03:05;;;;;;;33.72;25.10;;;;;;;;;;5032408;28;20036;-62
2022/04/25 14:04:44;;;;;;;32.65;26.23;;;;;;;;;;5020179;28;20030;-62
2022/04/25 14:07:10;;;;;;;33.10;26.10;;;;;;;;;;5026442;28;20026;-62
2022/04/25 14:09:36;;;;;;;28.77;25.33;;;;;;;;;;5024125;28;20032;-62
2022/04/25 14:12:02;;;;;;;28.27;24.42;;;;;;;;;;5024547;28;20604;-61
2022/04/25 14:14:28;;;;;;;29.20;26.00;;;;;;;;;;5023167;28;20048;-63
2022/04/25 14:16:54;;;;;;;27.05;24.02;;;;;;;;;;5026108;28;20025;-63
2022/04/25 14:19:20;;;;;;;27.20;23.88;;;;;;;;;;5017311;28;20053;-61
2022/04/25 14:21:46;;;;;;;30.13;25.02;;;;;;;;;;5021950;28;20062;-62
2022/04/25 14:24:12;;;;;;;26.90;22.08;;;;;;;;;;5021721;28;20030;-62
2022/04/25 14:26:38;;;;;;;27.67;21.88;;;;;;;;;;5021078;28;20033;-62
2022/04/25 14:29:04;;;;;;;23.75;21.17;;;;;;;;;;5031359;28;20363;-58
2022/04/25 14:31:30;;;;;;;21.73;19.52;;;;;;;;;;5023345;28;20037;-58
2022/04/25 14:33:56;;;;;;;24.38;19.63;;;;;;;;;;5024086;28;20041;-58
2022/04/25 14:36:22;;;;;;;24.20;20.75;;;;;;;;;;5023394;28;20082;-59
2022/04/25 14:38:48;;;;;;;22.02;19.73;;;;;;;;;;5023893;28;20457;-58
2022/04/25 14:41:14;;;;;;;22.17;19.45;;;;;;;;;;5022139;28;20030;-59
2022/04/25 14:43:40;;;;;;;23.50;20.90;;;;;;;;;;5023893;28;20028;-59
2022/04/25 14:46:06;;;;;;;24.02;21.05;;;;;;;;;;5025097;28;20025;-59
2022/04/25 14:48:33;;;;;;;25.23;19.88;;;;;;;;;;5025225;28;20599;-59
2022/04/25 14:56:28;;;;;;;22.73;18.83;;;;;;;;;;5026280;28;20127;-58
2022/04/25 14:58:56;;;;;;;20.90;18.70;;;;;;;;;;5019385;28;20052;-58
2022/04/25 15:01:22;;;;;;;19.80;17.05;;;;;;;;;;5024264;28;20032;-59
2022/04/25 15:03:50;;;;;;;23.52;17.80;;;;;;;;;;5025042;28;20038;-57
2022/04/25 15:06:16;;;;;;;20.05;17.33;;;;;;;;;;5018131;28;20556;-58
2022/04/25 15:08:42;;;;;;;21.40;17.00;;;;;;;;;;5023368;28;20090;-59
2022/04/25 15:11:08;;;;;;;19.75;17.02;;;;;;;;;;5023098;28;20033;-58
2022/04/25 15:13:34;;;;;;;22.20;17.27;;;;;;;;;;5021533;28;20040;-58
2022/04/25 15:16:03;;;;;;;20.13;17.15;;;;;;;;;;5019437;28;20036;-59
2022/04/25 15:18:29;;;;;;;20.90;16.85;;;;;;;;;;5020931;28;20189;-58